createdAt,value
2018-11-12T00:00:01.935Z,974.8
2018-11-12T00:01:11.802Z,974.81
2018-11-12T00:02:21.663Z,974.8
2018-11-12T00:03:31.511Z,974.77
2018-11-12T00:04:41.085Z,974.8
2018-11-12T00:05:51.212Z,974.8
2018-11-12T00:07:01.332Z,974.83
2018-11-12T00:08:11.538Z,974.81
2018-11-12T00:09:21.675Z,974.79
2018-11-12T00:10:31.531Z,974.81
2018-11-12T00:11:41.389Z,974.77
2018-11-12T00:12:51.247Z,974.74
2018-11-12T00:14:01.393Z,974.72
2018-11-12T00:15:11.523Z,974.73
2018-11-12T00:16:21.661Z,974.75
2018-11-12T00:17:30.967Z,974.75
2018-11-12T00:18:40.813Z,974.68
2018-11-12T00:19:50.993Z,974.72
2018-11-12T00:21:01.117Z,974.68
2018-11-12T00:22:10.980Z,974.71
2018-11-12T00:23:20.561Z,974.74
2018-11-12T00:24:30.425Z,974.75
2018-11-12T00:25:40.002Z,974.69
2018-11-12T00:26:50.134Z,974.75
2018-11-12T00:27:59.981Z,974.68
2018-11-12T00:29:09.013Z,974.7
2018-11-12T00:30:19.135Z,974.68
2018-11-12T00:31:28.717Z,974.72
2018-11-12T00:32:38.568Z,974.66
2018-11-12T00:33:48.422Z,974.68
2018-11-12T00:34:58.275Z,974.69
2018-11-12T00:36:08.138Z,974.68
2018-11-12T00:37:18.261Z,974.63
2018-11-12T00:38:28.402Z,974.66
2018-11-12T00:39:38.250Z,974.66
2018-11-12T00:40:48.386Z,974.66
2018-11-12T00:41:58.528Z,974.66
2018-11-12T00:43:08.660Z,974.69
2018-11-12T00:44:18.835Z,974.63
2018-11-12T00:45:28.415Z,974.62
2018-11-12T00:46:38.541Z,974.61
2018-11-12T00:47:48.393Z,974.59
2018-11-12T00:48:58.244Z,974.58
2018-11-12T00:50:08.093Z,974.6
2018-11-12T00:51:18.226Z,974.59
2018-11-12T00:52:28.365Z,974.59
2018-11-12T00:53:38.215Z,974.54
2018-11-12T00:54:48.065Z,974.52
2018-11-12T00:55:57.918Z,974.58
2018-11-12T00:57:07.791Z,974.59
2018-11-12T00:58:17.921Z,974.56
2018-11-12T00:59:27.498Z,974.58
2018-11-12T01:00:37.348Z,974.56
2018-11-12T01:01:47.215Z,974.54
2018-11-12T01:02:56.796Z,974.53
2018-11-12T01:04:06.702Z,974.54
2018-11-12T01:05:17.562Z,974.58
2018-11-12T01:06:27.438Z,974.52
2018-11-12T01:07:37.571Z,974.59
2018-11-12T01:08:47.149Z,974.54
2018-11-12T01:09:57.002Z,974.5
2018-11-12T01:11:06.854Z,974.49
2018-11-12T01:12:16.431Z,974.52
2018-11-12T01:13:26.573Z,974.47
2018-11-12T01:14:36.164Z,974.52
2018-11-12T01:15:46.289Z,974.46
2018-11-12T01:16:56.432Z,974.47
2018-11-12T01:18:05.744Z,974.43
2018-11-12T01:19:15.870Z,974.37
2018-11-12T01:20:25.458Z,974.44
2018-11-12T01:21:35.591Z,974.44
2018-11-12T01:22:45.776Z,974.45
2018-11-12T01:23:55.915Z,974.43
2018-11-12T01:25:05.776Z,974.39
2018-11-12T01:26:15.629Z,974.4
2018-11-12T01:27:25.483Z,974.38
2018-11-12T01:28:35.635Z,974.43
2018-11-12T01:29:45.489Z,974.41
2018-11-12T01:30:55.633Z,974.4
2018-11-12T01:32:05.770Z,974.43
2018-11-12T01:33:15.901Z,974.36
2018-11-12T01:34:25.763Z,974.37
2018-11-12T01:35:35.348Z,974.35
2018-11-12T01:36:44.927Z,974.36
2018-11-12T01:37:54.793Z,974.33
2018-11-12T01:39:04.646Z,974.29
2018-11-12T01:40:14.780Z,974.29
2018-11-12T01:41:24.907Z,974.3
2018-11-12T01:42:35.033Z,974.28
2018-11-12T01:43:45.157Z,974.3
2018-11-12T01:44:55.290Z,974.27
2018-11-12T01:46:05.464Z,974.24
2018-11-12T01:47:15.322Z,974.24
2018-11-12T01:48:24.898Z,974.27
2018-11-12T01:49:35.042Z,974.24
2018-11-12T01:50:45.176Z,974.26
2018-11-12T01:51:54.486Z,974.27
2018-11-12T01:53:04.067Z,974.26
2018-11-12T01:54:13.648Z,974.29
2018-11-12T01:55:23.503Z,974.32
2018-11-12T01:56:33.356Z,974.27
2018-11-12T01:57:42.940Z,974.27
2018-11-12T01:58:52.797Z,974.25
2018-11-12T02:00:02.925Z,974.28
2018-11-12T02:01:12.792Z,974.3
2018-11-12T02:02:22.654Z,974.27
2018-11-12T02:03:32.788Z,974.26
2018-11-12T02:04:42.684Z,974.28
2018-11-12T02:05:53.437Z,974.27
2018-11-12T02:07:03.570Z,974.25
2018-11-12T02:08:12.884Z,974.22
2018-11-12T02:09:22.747Z,974.29
2018-11-12T02:10:32.879Z,974.26
2018-11-12T02:11:43.014Z,974.28
2018-11-12T02:12:53.143Z,974.24
2018-11-12T02:14:03.274Z,974.23
2018-11-12T02:15:13.402Z,974.26
2018-11-12T02:16:23.260Z,974.27
2018-11-12T02:17:33.111Z,974.28
2018-11-12T02:18:43.242Z,974.24
2018-11-12T02:19:53.374Z,974.29
2018-11-12T02:21:03.243Z,974.23
2018-11-12T02:22:13.370Z,974.22
2018-11-12T02:23:23.561Z,974.19
2018-11-12T02:24:33.165Z,974.19
2018-11-12T02:25:43.294Z,974.15
2018-11-12T02:26:53.425Z,974.16
2018-11-12T02:28:03.286Z,974.13
2018-11-12T02:29:13.153Z,974.19
2018-11-12T02:30:23.011Z,974.15
2018-11-12T02:31:33.051Z,974.11
2018-11-12T02:32:42.908Z,974.18
2018-11-12T02:33:53.042Z,974.15
2018-11-12T02:35:02.913Z,974.17
2018-11-12T02:36:12.500Z,974.16
2018-11-12T02:37:22.642Z,974.14
2018-11-12T02:38:32.776Z,974.15
2018-11-12T02:39:42.903Z,974.13
2018-11-12T02:40:53.031Z,974.12
2018-11-12T02:42:03.163Z,974.12
2018-11-12T02:43:13.300Z,974.11
2018-11-12T02:44:22.884Z,974.11
2018-11-12T02:45:32.461Z,974.08
2018-11-12T02:46:42.314Z,974.09
2018-11-12T02:47:52.453Z,974.08
2018-11-12T02:49:02.040Z,974.09
2018-11-12T02:50:12.174Z,974.09
2018-11-12T02:51:22.316Z,974.12
2018-11-12T02:52:32.170Z,974.11
2018-11-12T02:53:42.032Z,974.14
2018-11-12T02:54:52.153Z,974.16
2018-11-12T02:56:02.306Z,974.16
2018-11-12T02:57:12.218Z,974.19
2018-11-12T02:58:22.225Z,974.22
2018-11-12T02:59:32.373Z,974.21
2018-11-12T03:00:42.503Z,974.17
2018-11-12T03:01:52.637Z,974.19
2018-11-12T03:03:02.493Z,974.17
2018-11-12T03:04:12.635Z,974.19
2018-11-12T03:05:22.496Z,974.21
2018-11-12T03:06:32.633Z,974.23
2018-11-12T03:07:42.800Z,974.21
2018-11-12T03:08:52.746Z,974.21
2018-11-12T03:10:02.597Z,974.18
2018-11-12T03:11:12.460Z,974.2
2018-11-12T03:12:22.594Z,974.22
2018-11-12T03:13:32.725Z,974.22
2018-11-12T03:14:42.647Z,974.25
2018-11-12T03:15:52.772Z,974.21
2018-11-12T03:17:02.365Z,974.2
2018-11-12T03:18:11.951Z,974.23
2018-11-12T03:19:22.098Z,974.2
2018-11-12T03:20:32.237Z,974.2
2018-11-12T03:21:42.370Z,974.22
2018-11-12T03:22:52.220Z,974.25
2018-11-12T03:24:02.380Z,974.2
2018-11-12T03:25:12.527Z,974.2
2018-11-12T03:26:22.386Z,974.21
2018-11-12T03:27:32.302Z,974.22
2018-11-12T03:28:42.617Z,974.19
2018-11-12T03:29:52.473Z,974.23
2018-11-12T03:31:02.601Z,974.22
2018-11-12T03:32:12.768Z,974.26
2018-11-12T03:33:22.662Z,974.23
2018-11-12T03:34:32.805Z,974.26
2018-11-12T03:35:42.936Z,974.28
2018-11-12T03:36:52.797Z,974.28
2018-11-12T03:38:02.100Z,974.26
2018-11-12T03:39:12.238Z,974.32
2018-11-12T03:40:22.101Z,974.38
2018-11-12T03:41:32.239Z,974.33
2018-11-12T03:42:42.100Z,974.37
2018-11-12T03:43:51.969Z,974.36
2018-11-12T03:45:02.108Z,974.34
2018-11-12T03:46:11.700Z,974.37
2018-11-12T03:47:21.832Z,974.41
2018-11-12T03:48:31.955Z,974.41
2018-11-12T03:49:41.816Z,974.4
2018-11-12T03:50:51.119Z,974.37
2018-11-12T03:52:00.967Z,974.39
2018-11-12T03:53:10.560Z,974.42
2018-11-12T03:54:20.693Z,974.44
2018-11-12T03:55:30.822Z,974.48
2018-11-12T03:56:40.972Z,974.43
2018-11-12T03:57:50.833Z,974.43
2018-11-12T03:59:00.965Z,974.45
2018-11-12T04:00:10.898Z,974.46
2018-11-12T04:01:21.376Z,974.48
2018-11-12T04:02:31.517Z,974.46
2018-11-12T04:03:41.652Z,974.47
2018-11-12T04:04:51.786Z,974.43
2018-11-12T04:06:01.638Z,974.42
2018-11-12T04:07:11.763Z,974.41
2018-11-12T04:08:21.889Z,974.45
2018-11-12T04:09:32.032Z,974.48
2018-11-12T04:10:42.159Z,974.47
2018-11-12T04:11:52.009Z,974.51
2018-11-12T04:13:02.134Z,974.54
2018-11-12T04:14:11.999Z,974.52
2018-11-12T04:15:21.855Z,974.56
2018-11-12T04:16:31.994Z,974.56
2018-11-12T04:17:41.898Z,974.59
2018-11-12T04:18:52.048Z,974.62
2018-11-12T04:20:01.908Z,974.66
2018-11-12T04:21:11.789Z,974.68
2018-11-12T04:22:21.647Z,974.73
2018-11-12T04:23:31.514Z,974.66
2018-11-12T04:24:41.648Z,974.76
2018-11-12T04:25:51.807Z,974.72
2018-11-12T04:27:01.665Z,974.7
2018-11-12T04:28:11.522Z,974.73
2018-11-12T04:29:21.909Z,974.73
2018-11-12T04:30:31.780Z,974.72
2018-11-12T04:31:41.917Z,974.68
2018-11-12T04:32:51.781Z,974.74
2018-11-12T04:34:01.936Z,974.71
2018-11-12T04:35:11.513Z,974.72
2018-11-12T04:36:21.090Z,974.73
2018-11-12T04:37:30.955Z,974.72
2018-11-12T04:38:41.095Z,974.71
2018-11-12T04:39:51.233Z,974.72
2018-11-12T04:41:00.864Z,974.75
2018-11-12T04:42:10.740Z,974.71
2018-11-12T04:43:20.878Z,974.68
2018-11-12T04:44:30.453Z,974.69
2018-11-12T04:45:40.405Z,974.72
2018-11-12T04:46:50.900Z,974.69
2018-11-12T04:48:01.038Z,974.7
2018-11-12T04:49:10.620Z,974.72
2018-11-12T04:50:20.475Z,974.76
2018-11-12T04:51:30.332Z,974.78
2018-11-12T04:52:40.191Z,974.87
2018-11-12T04:53:50.466Z,974.91
2018-11-12T04:55:00.938Z,974.86
2018-11-12T04:56:11.189Z,974.9
2018-11-12T04:57:21.332Z,974.86
2018-11-12T04:58:31.464Z,974.8
2018-11-12T04:59:41.597Z,974.81
2018-11-12T05:00:51.484Z,974.75
2018-11-12T05:02:01.488Z,974.79
2018-11-12T05:03:12.236Z,974.8
2018-11-12T05:04:21.817Z,974.82
2018-11-12T05:05:31.668Z,974.79
2018-11-12T05:06:41.797Z,974.78
2018-11-12T05:07:51.663Z,974.78
2018-11-12T05:09:01.852Z,974.8
2018-11-12T05:10:11.431Z,974.77
2018-11-12T05:11:21.590Z,974.8
2018-11-12T05:12:31.449Z,974.81
2018-11-12T05:13:41.304Z,974.8
2018-11-12T05:14:51.431Z,974.83
2018-11-12T05:16:01.016Z,974.92
2018-11-12T05:17:10.880Z,974.95
2018-11-12T05:18:20.456Z,974.99
2018-11-12T05:19:30.636Z,974.98
2018-11-12T05:20:40.512Z,974.99
2018-11-12T05:21:50.645Z,975
2018-11-12T05:23:00.770Z,975.02
2018-11-12T05:24:10.633Z,975.01
2018-11-12T05:25:20.758Z,974.99
2018-11-12T05:26:30.618Z,975.04
2018-11-12T05:27:40.748Z,975.05
2018-11-12T05:28:50.884Z,975.03
2018-11-12T05:30:01.020Z,975.09
2018-11-12T05:31:11.161Z,975.07
2018-11-12T05:32:21.291Z,975.06
2018-11-12T05:33:31.422Z,975.06
2018-11-12T05:34:41.556Z,975.06
2018-11-12T05:35:51.687Z,975.09
2018-11-12T05:37:01.548Z,975.08
2018-11-12T05:38:11.782Z,975.14
2018-11-12T05:39:22.386Z,975.1
2018-11-12T05:40:31.969Z,975.1
2018-11-12T05:41:41.826Z,975.09
2018-11-12T05:42:51.949Z,975.09
2018-11-12T05:44:02.071Z,975.09
2018-11-12T05:45:11.922Z,975.12
2018-11-12T05:46:21.775Z,975.13
2018-11-12T05:47:31.626Z,975.13
2018-11-12T05:48:41.488Z,975.13
2018-11-12T05:49:51.074Z,975.14
2018-11-12T05:51:00.925Z,975.14
2018-11-12T05:52:11.054Z,975.14
2018-11-12T05:53:20.904Z,975.18
2018-11-12T05:54:31.027Z,975.17
2018-11-12T05:55:40.884Z,975.14
2018-11-12T05:56:51.014Z,975.11
2018-11-12T05:58:00.869Z,975.11
2018-11-12T05:59:09.986Z,975.14
2018-11-12T06:00:20.135Z,975.19
2018-11-12T06:01:29.990Z,975.21
2018-11-12T06:02:39.573Z,975.15
2018-11-12T06:03:49.710Z,975.15
2018-11-12T06:04:59.675Z,975.16
2018-11-12T06:06:09.774Z,975.16
2018-11-12T06:07:19.634Z,975.12
2018-11-12T06:08:29.760Z,975.16
2018-11-12T06:09:39.609Z,975.12
2018-11-12T06:10:49.746Z,975.15
2018-11-12T06:11:59.875Z,975.2
2018-11-12T06:13:10.005Z,975.18
2018-11-12T06:14:19.855Z,975.19
2018-11-12T06:15:29.980Z,975.18
2018-11-12T06:16:40.103Z,975.21
2018-11-12T06:17:49.961Z,975.2
2018-11-12T06:19:00.085Z,975.19
2018-11-12T06:20:09.949Z,975.18
2018-11-12T06:21:19.800Z,975.18
2018-11-12T06:22:29.953Z,975.17
2018-11-12T06:23:40.184Z,975.16
2018-11-12T06:24:50.048Z,975.18
2018-11-12T06:25:59.624Z,975.15
2018-11-12T06:27:41.574Z,975.15
2018-11-12T06:28:51.430Z,975.12
2018-11-12T06:30:01.011Z,975.12
2018-11-12T06:31:10.928Z,975.18
2018-11-12T06:32:21.832Z,975.18
2018-11-12T06:33:31.960Z,975.14
2018-11-12T06:34:41.536Z,975.14
2018-11-12T06:35:51.388Z,975.15
2018-11-12T06:37:01.251Z,975.09
2018-11-12T06:38:11.387Z,975.13
2018-11-12T06:39:21.242Z,975.14
2018-11-12T06:40:31.099Z,975.12
2018-11-12T06:41:51.762Z,975.1
2018-11-12T06:43:01.975Z,975.1
2018-11-12T06:44:12.851Z,975.09
2018-11-12T06:45:22.700Z,975.12
2018-11-12T06:46:32.563Z,975.1
2018-11-12T06:47:42.414Z,975.13
2018-11-12T06:48:51.988Z,975.16
2018-11-12T06:50:01.843Z,975.15
2018-11-12T06:51:11.713Z,975.19
2018-11-12T06:52:21.854Z,975.25
2018-11-12T06:53:31.465Z,975.27
2018-11-12T06:54:41.884Z,975.24
2018-11-12T06:55:52.015Z,975.27
2018-11-12T06:57:02.148Z,975.31
2018-11-12T06:58:12.278Z,975.28
2018-11-12T06:59:22.131Z,975.31
2018-11-12T07:00:32.263Z,975.28
2018-11-12T07:01:42.475Z,975.28
2018-11-12T07:02:52.053Z,975.26
2018-11-12T07:04:02.194Z,975.31
2018-11-12T07:05:12.046Z,975.35
2018-11-12T07:06:22.187Z,975.31
2018-11-12T07:07:32.404Z,975.35
2018-11-12T07:08:42.539Z,975.33
2018-11-12T07:09:52.686Z,975.32
2018-11-12T07:11:02.546Z,975.37
2018-11-12T07:12:12.402Z,975.41
2018-11-12T07:13:22.328Z,975.34
2018-11-12T07:14:32.832Z,975.35
2018-11-12T07:15:42.961Z,975.37
2018-11-12T07:16:52.815Z,975.4
2018-11-12T07:18:02.673Z,975.41
2018-11-12T07:19:12.830Z,975.44
2018-11-12T07:20:22.682Z,975.43
2018-11-12T07:21:32.814Z,975.44
2018-11-12T07:22:42.668Z,975.42
2018-11-12T07:23:52.845Z,975.43
2018-11-12T07:25:02.715Z,975.46
2018-11-12T07:26:12.544Z,975.5
2018-11-12T07:27:22.670Z,975.51
2018-11-12T07:28:32.521Z,975.48
2018-11-12T07:29:42.667Z,975.5
2018-11-12T07:30:52.427Z,975.54
2018-11-12T07:32:03.444Z,975.53
2018-11-12T07:33:13.297Z,975.56
2018-11-12T07:34:23.433Z,975.54
2018-11-12T07:35:33.301Z,975.55
2018-11-12T07:36:43.160Z,975.52
2018-11-12T07:37:53.298Z,975.54
2018-11-12T07:39:03.430Z,975.57
2018-11-12T07:40:13.010Z,975.54
2018-11-12T07:41:22.591Z,975.56
2018-11-12T07:42:32.441Z,975.58
2018-11-12T07:43:42.570Z,975.56
2018-11-12T07:44:52.427Z,975.56
2018-11-12T07:46:02.285Z,975.55
2018-11-12T07:47:11.868Z,975.58
2018-11-12T07:48:21.721Z,975.58
2018-11-12T07:49:31.028Z,975.58
2018-11-12T07:50:41.160Z,975.54
2018-11-12T07:51:51.288Z,975.53
2018-11-12T07:53:01.463Z,975.53
2018-11-12T07:54:11.596Z,975.56
2018-11-12T07:55:21.567Z,975.53
2018-11-12T07:56:31.518Z,975.54
2018-11-12T07:57:41.741Z,975.56
2018-11-12T07:58:51.594Z,975.54
2018-11-12T08:00:01.725Z,975.56
2018-11-12T08:01:11.321Z,975.58
2018-11-12T08:02:21.178Z,975.58
2018-11-12T08:03:31.032Z,975.6
2018-11-12T08:04:41.346Z,975.57
2018-11-12T08:05:51.471Z,975.54
2018-11-12T08:07:01.610Z,975.54
2018-11-12T08:08:11.463Z,975.53
2018-11-12T08:09:21.329Z,975.56
2018-11-12T08:10:31.190Z,975.55
2018-11-12T08:11:41.324Z,975.51
2018-11-12T08:12:51.333Z,975.52
2018-11-12T08:14:01.189Z,975.53
2018-11-12T08:15:10.764Z,975.55
2018-11-12T08:16:20.921Z,975.58
2018-11-12T08:17:31.374Z,975.57
2018-11-12T08:18:41.800Z,975.54
2018-11-12T08:19:52.043Z,975.53
2018-11-12T08:21:01.899Z,975.46
2018-11-12T08:22:11.759Z,975.46
2018-11-12T08:23:21.619Z,975.49
2018-11-12T08:24:31.831Z,975.44
2018-11-12T08:25:42.468Z,975.51
2018-11-12T08:26:52.333Z,975.49
2018-11-12T08:28:01.911Z,975.52
2018-11-12T08:29:11.771Z,975.55
2018-11-12T08:30:22.001Z,975.59
2018-11-12T08:31:33.143Z,975.62
2018-11-12T08:32:43.287Z,975.53
2018-11-12T08:33:53.552Z,975.62
2018-11-12T08:35:03.408Z,975.62
2018-11-12T08:36:13.074Z,975.6
2018-11-12T08:37:23.015Z,975.63
2018-11-12T08:38:32.876Z,975.63
2018-11-12T08:39:43.274Z,975.63
2018-11-12T08:40:54.555Z,975.63
2018-11-12T08:42:05.398Z,975.7
2018-11-12T08:43:15.522Z,975.68
2018-11-12T08:44:25.384Z,975.67
2018-11-12T08:45:35.288Z,975.68
2018-11-12T08:46:45.415Z,975.71
2018-11-12T08:47:55.274Z,975.73
2018-11-12T08:49:05.551Z,975.7
2018-11-12T08:50:16.759Z,975.7
2018-11-12T08:51:26.912Z,975.71
2018-11-12T08:52:37.042Z,975.72
2018-11-12T08:53:47.175Z,975.74
2018-11-12T08:54:57.122Z,975.72
2018-11-12T08:56:07.475Z,975.74
2018-11-12T08:57:17.654Z,975.76
2018-11-12T08:58:27.784Z,975.76
2018-11-12T08:59:37.436Z,975.78
2018-11-12T09:00:47.471Z,975.77
2018-11-12T09:01:58.184Z,975.78
2018-11-12T09:03:08.138Z,975.76
2018-11-12T09:04:18.266Z,975.8
2018-11-12T09:05:28.137Z,975.8
2018-11-12T09:06:38.142Z,975.82
2018-11-12T09:07:48.276Z,975.79
2018-11-12T09:09:01.740Z,975.83
2018-11-12T09:10:11.982Z,975.87
2018-11-12T09:11:22.316Z,975.89
2018-11-12T09:12:32.454Z,975.92
2018-11-12T09:13:42.973Z,975.95
2018-11-12T09:14:54.264Z,975.97
2018-11-12T09:16:03.855Z,975.98
2018-11-12T09:17:13.981Z,976.01
2018-11-12T09:18:24.112Z,975.99
2018-11-12T09:19:33.958Z,975.97
2018-11-12T09:20:44.140Z,976
2018-11-12T09:21:53.990Z,976
2018-11-12T09:23:04.124Z,976.01
2018-11-12T09:24:14.284Z,975.97
2018-11-12T09:25:24.922Z,975.96
2018-11-12T09:26:34.814Z,976
2018-11-12T09:27:44.947Z,975.97
2018-11-12T09:28:55.089Z,975.99
2018-11-12T09:30:04.952Z,976
2018-11-12T09:31:16.503Z,976.02
2018-11-12T09:32:30.714Z,976
2018-11-12T09:33:41.780Z,976.03
2018-11-12T09:34:52.111Z,976.03
2018-11-12T09:36:01.675Z,975.99
2018-11-12T09:37:11.858Z,976.03
2018-11-12T09:38:22.122Z,976.06
2018-11-12T09:39:32.229Z,976.03
2018-11-12T09:40:42.090Z,976.06
2018-11-12T09:41:51.948Z,976.11
2018-11-12T09:43:01.838Z,976.05
2018-11-12T09:44:12.297Z,976.08
2018-11-12T09:45:22.772Z,976.12
2018-11-12T09:46:32.953Z,976.11
2018-11-12T09:47:43.223Z,976.17
2018-11-12T09:48:53.972Z,976.23
2018-11-12T09:50:04.158Z,976.2
2018-11-12T09:51:14.015Z,976.26
2018-11-12T09:52:24.137Z,976.29
2018-11-12T09:53:34.051Z,976.25
2018-11-12T09:54:44.990Z,976.33
2018-11-12T09:55:55.831Z,976.3
2018-11-12T09:57:05.971Z,976.3
2018-11-12T09:58:16.110Z,976.29
2018-11-12T09:59:26.270Z,976.27
2018-11-12T10:00:37.187Z,976.27
2018-11-12T10:01:48.998Z,976.31
2018-11-12T10:03:01.901Z,976.26
2018-11-12T10:04:19.919Z,976.28
2018-11-12T10:05:37.076Z,976.33
2018-11-12T10:06:58.183Z,976.3
2018-11-12T10:08:18.338Z,976.28
2018-11-12T10:09:44.247Z,976.29
2018-11-12T10:11:09.670Z,976.32
2018-11-12T10:12:40.353Z,976.31
2018-11-12T10:14:04.290Z,976.34
2018-11-12T10:15:32.513Z,976.3
2018-11-12T10:16:59.982Z,976.32
2018-11-12T10:18:23.090Z,976.31
2018-11-12T10:19:33.262Z,976.35
2018-11-12T10:20:43.415Z,976.4
2018-11-12T10:21:53.543Z,976.43
2018-11-12T10:23:03.388Z,976.4
2018-11-12T10:24:13.557Z,976.38
2018-11-12T10:25:23.406Z,976.36
2018-11-12T10:26:33.274Z,976.35
2018-11-12T10:27:43.129Z,976.31
2018-11-12T10:28:52.702Z,976.37
2018-11-12T10:30:02.635Z,976.36
2018-11-12T10:31:12.768Z,976.39
2018-11-12T10:32:22.658Z,976.38
2018-11-12T10:33:32.512Z,976.31
2018-11-12T10:34:42.644Z,976.3
2018-11-12T10:35:52.496Z,976.35
2018-11-12T10:37:02.348Z,976.3
2018-11-12T10:38:12.203Z,976.27
2018-11-12T10:39:22.073Z,976.23
2018-11-12T10:40:31.925Z,976.29
2018-11-12T10:41:41.892Z,976.25
2018-11-12T10:42:51.770Z,976.29
2018-11-12T10:44:02.043Z,976.31
2018-11-12T10:45:11.896Z,976.32
2018-11-12T10:46:21.757Z,976.32
2018-11-12T10:47:31.942Z,976.37
2018-11-12T10:48:41.797Z,976.4
2018-11-12T10:49:51.935Z,976.36
2018-11-12T10:51:05.168Z,976.43
2018-11-12T10:52:16.053Z,976.32
2018-11-12T10:53:26.239Z,976.34
2018-11-12T10:54:36.895Z,976.35
2018-11-12T10:55:48.155Z,976.38
2018-11-12T10:56:59.164Z,976.47
2018-11-12T10:58:09.310Z,976.49
2018-11-12T10:59:19.342Z,976.52
2018-11-12T11:00:29.548Z,976.56
2018-11-12T11:01:39.703Z,976.54
2018-11-12T11:02:49.564Z,976.52
2018-11-12T11:03:59.422Z,976.52
2018-11-12T11:05:09.602Z,976.53
2018-11-12T11:06:19.737Z,976.47
2018-11-12T11:07:29.608Z,976.53
2018-11-12T11:08:39.736Z,976.49
2018-11-12T11:09:49.597Z,976.52
2018-11-12T11:10:59.500Z,976.47
2018-11-12T11:12:09.634Z,976.44
2018-11-12T11:13:19.490Z,976.5
2018-11-12T11:14:29.614Z,976.46
2018-11-12T11:15:39.541Z,976.56
2018-11-12T11:16:49.874Z,976.59
2018-11-12T11:18:00.022Z,976.63
2018-11-12T11:19:09.893Z,976.64
2018-11-12T11:20:20.022Z,976.6
2018-11-12T11:21:30.152Z,976.63
2018-11-12T11:22:40.333Z,976.64
2018-11-12T11:23:50.470Z,976.59
2018-11-12T11:25:00.048Z,976.62
2018-11-12T11:26:10.180Z,976.56
2018-11-12T11:27:20.033Z,976.57
2018-11-12T11:28:30.224Z,976.65
2018-11-12T11:29:40.361Z,976.64
2018-11-12T11:30:50.491Z,976.72
2018-11-12T11:32:00.950Z,976.74
2018-11-12T11:33:10.819Z,976.69
2018-11-12T11:34:20.680Z,976.74
2018-11-12T11:35:30.541Z,976.72
2018-11-12T11:36:40.674Z,976.66
2018-11-12T11:37:50.868Z,976.68
2018-11-12T11:39:01.278Z,976.65
2018-11-12T11:40:11.211Z,976.7
